sensor_id;sensor_type;location;lat;lon;timestamp;pressure;altitude;pressure_sealevel;temperature;humidity
32875;BME280;40468;42.128;24.750;2024-03-22T00:00:17;99888.09;;;7.69;66.60
32875;BME280;40468;42.128;24.750;2024-03-22T00:01:48;99903.53;;;7.72;66.69
32875;BME280;40468;42.128;24.750;2024-03-22T00:03:22;99899.19;;;7.73;66.45
32875;BME280;40468;42.128;24.750;2024-03-22T00:04:53;99907.00;;;7.71;66.75
32875;BME280;40468;42.128;24.750;2024-03-22T00:06:25;99893.41;;;7.65;66.73
32875;BME280;40468;42.128;24.750;2024-03-22T00:07:56;99902.84;;;7.67;66.92
32875;BME280;40468;42.128;24.750;2024-03-22T00:09:27;99907.16;;;7.67;66.79
32875;BME280;40468;42.128;24.750;2024-03-22T00:10:58;99909.03;;;7.63;66.81
32875;BME280;40468;42.128;24.750;2024-03-22T00:12:29;99904.78;;;7.61;66.79
32875;BME280;40468;42.128;24.750;2024-03-22T00:14:01;99900.66;;;7.53;66.88
32875;BME280;40468;42.128;24.750;2024-03-22T00:15:33;99908.41;;;7.55;66.84
32875;BME280;40468;42.128;24.750;2024-03-22T00:17:04;99901.59;;;7.51;67.02
32875;BME280;40468;42.128;24.750;2024-03-22T00:18:37;99908.59;;;7.49;67.15
32875;BME280;40468;42.128;24.750;2024-03-22T00:20:08;99893.47;;;7.35;67.14
32875;BME280;40468;42.128;24.750;2024-03-22T00:21:39;99907.88;;;7.44;67.07
32875;BME280;40468;42.128;24.750;2024-03-22T00:23:11;99910.34;;;7.48;67.11
32875;BME280;40468;42.128;24.750;2024-03-22T00:24:42;99911.22;;;7.47;67.08
32875;BME280;40468;42.128;24.750;2024-03-22T00:26:13;99863.78;;;7.17;67.02
32875;BME280;40468;42.128;24.750;2024-03-22T00:27:45;99909.66;;;7.42;67.04
32875;BME280;40468;42.128;24.750;2024-03-22T00:29:15;99886.78;;;7.28;67.13
32875;BME280;40468;42.128;24.750;2024-03-22T00:30:46;99905.31;;;7.42;67.07
32875;BME280;40468;42.128;24.750;2024-03-22T00:32:18;99904.47;;;7.42;66.94
32875;BME280;40468;42.128;24.750;2024-03-22T00:33:50;99901.88;;;7.42;67.04
32875;BME280;40468;42.128;24.750;2024-03-22T00:35:21;99903.69;;;7.40;67.08
32875;BME280;40468;42.128;24.750;2024-03-22T00:36:53;99903.78;;;7.37;67.04
32875;BME280;40468;42.128;24.750;2024-03-22T00:38:24;99901.22;;;7.35;67.08
32875;BME280;40468;42.128;24.750;2024-03-22T00:39:55;99898.72;;;7.34;67.12
32875;BME280;40468;42.128;24.750;2024-03-22T00:41:26;99902.13;;;7.34;67.07
32875;BME280;40468;42.128;24.750;2024-03-22T00:42:58;99906.41;;;7.35;67.05
32875;BME280;40468;42.128;24.750;2024-03-22T00:44:29;99893.69;;;7.27;66.97
32875;BME280;40468;42.128;24.750;2024-03-22T00:46:01;99906.50;;;7.32;67.00
32875;BME280;40468;42.128;24.750;2024-03-22T00:47:33;99880.91;;;7.21;67.07
32875;BME280;40468;42.128;24.750;2024-03-22T00:49:05;99910.75;;;7.35;67.02
32875;BME280;40468;42.128;24.750;2024-03-22T00:50:37;99896.25;;;7.29;66.84
32875;BME280;40468;42.128;24.750;2024-03-22T00:52:08;99907.31;;;7.34;66.92
32875;BME280;40468;42.128;24.750;2024-03-22T00:53:39;99897.09;;;7.29;66.87
32875;BME280;40468;42.128;24.750;2024-03-22T00:55:10;99905.56;;;7.35;66.85
32875;BME280;40468;42.128;24.750;2024-03-22T00:56:41;99900.50;;;7.30;66.98
32875;BME280;40468;42.128;24.750;2024-03-22T00:58:12;99898.63;;;7.35;66.91
32875;BME280;40468;42.128;24.750;2024-03-22T00:59:44;99899.28;;;7.42;66.94
32875;BME280;40468;42.128;24.750;2024-03-22T01:01:14;99904.44;;;7.43;66.81
32875;BME280;40468;42.128;24.750;2024-03-22T01:02:45;99900.94;;;7.44;66.91
32875;BME280;40468;42.128;24.750;2024-03-22T01:04:19;99895.72;;;7.46;66.84
32875;BME280;40468;42.128;24.750;2024-03-22T01:05:49;99893.19;;;7.44;66.82
32875;BME280;40468;42.128;24.750;2024-03-22T01:07:20;99891.34;;;7.48;66.74
32875;BME280;40468;42.128;24.750;2024-03-22T01:08:52;99896.47;;;7.49;66.58
32875;BME280;40468;42.128;24.750;2024-03-22T01:10:23;99910.19;;;7.53;66.74
32875;BME280;40468;42.128;24.750;2024-03-22T01:11:54;99907.66;;;7.51;66.58
32875;BME280;40468;42.128;24.750;2024-03-22T01:13:26;99919.56;;;7.57;66.75
32875;BME280;40468;42.128;24.750;2024-03-22T01:14:56;99912.66;;;7.58;66.59
32875;BME280;40468;42.128;24.750;2024-03-22T01:16:28;99913.53;;;7.57;66.67
32875;BME280;40468;42.128;24.750;2024-03-22T01:17:59;99918.59;;;7.60;66.51
32875;BME280;40468;42.128;24.750;2024-03-22T01:19:31;99918.56;;;7.61;66.66
32875;BME280;40468;42.128;24.750;2024-03-22T01:21:04;99875.41;;;7.32;66.59
32875;BME280;40468;42.128;24.750;2024-03-22T01:22:36;99930.69;;;7.61;66.55
32875;BME280;40468;42.128;24.750;2024-03-22T01:24:08;99916.19;;;7.55;66.56
32875;BME280;40468;42.128;24.750;2024-03-22T01:25:38;99918.69;;;7.58;66.50
32875;BME280;40468;42.128;24.750;2024-03-22T01:27:09;99913.44;;;7.60;66.63
32875;BME280;40468;42.128;24.750;2024-03-22T01:28:41;99916.03;;;7.60;66.48
32875;BME280;40468;42.128;24.750;2024-03-22T01:30:12;99916.81;;;7.62;66.43
32875;BME280;40468;42.128;24.750;2024-03-22T01:31:44;99912.50;;;7.62;66.53
32875;BME280;40468;42.128;24.750;2024-03-22T01:33:15;99917.63;;;7.64;66.55
32875;BME280;40468;42.128;24.750;2024-03-22T01:34:48;99911.66;;;7.62;66.42
32875;BME280;40468;42.128;24.750;2024-03-22T01:36:19;99917.66;;;7.62;66.45
32875;BME280;40468;42.128;24.750;2024-03-22T01:37:50;99912.50;;;7.62;66.51
32875;BME280;40468;42.128;24.750;2024-03-22T01:39:22;99910.75;;;7.63;66.48
32875;BME280;40468;42.128;24.750;2024-03-22T01:40:53;99915.03;;;7.64;66.47
32875;BME280;40468;42.128;24.750;2024-03-22T01:42:24;99908.31;;;7.58;66.42
32875;BME280;40468;42.128;24.750;2024-03-22T01:43:56;99917.47;;;7.68;66.31
32875;BME280;40468;42.128;24.750;2024-03-22T01:45:31;99917.44;;;7.70;66.18
32875;BME280;40468;42.128;24.750;2024-03-22T01:47:04;99916.53;;;7.71;66.31
32875;BME280;40468;42.128;24.750;2024-03-22T01:48:35;99912.19;;;7.71;66.25
32875;BME280;40468;42.128;24.750;2024-03-22T01:50:09;99915.66;;;7.72;66.17
32875;BME280;40468;42.128;24.750;2024-03-22T01:51:40;99917.44;;;7.70;66.13
32875;BME280;40468;42.128;24.750;2024-03-22T01:53:11;99899.53;;;7.62;66.15
32875;BME280;40468;42.128;24.750;2024-03-22T01:54:43;99912.16;;;7.73;66.03
32875;BME280;40468;42.128;24.750;2024-03-22T01:56:14;99915.69;;;7.70;66.15
32875;BME280;40468;42.128;24.750;2024-03-22T01:57:46;99919.13;;;7.71;66.11
32875;BME280;40468;42.128;24.750;2024-03-22T01:59:18;99918.31;;;7.69;66.16
32875;BME280;40468;42.128;24.750;2024-03-22T02:00:49;99914.84;;;7.70;66.09
32875;BME280;40468;42.128;24.750;2024-03-22T02:02:21;99919.09;;;7.72;66.11
32875;BME280;40468;42.128;24.750;2024-03-22T02:03:52;99873.28;;;7.45;65.98
32875;BME280;40468;42.128;24.750;2024-03-22T02:05:24;99913.91;;;7.72;65.89
32875;BME280;40468;42.128;24.750;2024-03-22T02:06:56;99913.94;;;7.71;65.93
32875;BME280;40468;42.128;24.750;2024-03-22T02:08:27;99920.84;;;7.72;66.12
32875;BME280;40468;42.128;24.750;2024-03-22T02:09:58;99914.78;;;7.71;66.08
32875;BME280;40468;42.128;24.750;2024-03-22T02:11:30;99913.94;;;7.71;65.91
32875;BME280;40468;42.128;24.750;2024-03-22T02:13:02;99910.59;;;7.67;65.93
32875;BME280;40468;42.128;24.750;2024-03-22T02:14:33;99915.66;;;7.72;66.03
32875;BME280;40468;42.128;24.750;2024-03-22T02:16:05;99913.91;;;7.72;65.87
32875;BME280;40468;42.128;24.750;2024-03-22T02:17:36;99790.94;;;7.00;65.84
32875;BME280;40468;42.128;24.750;2024-03-22T02:19:08;99911.34;;;7.71;65.83
32875;BME280;40468;42.128;24.750;2024-03-22T02:20:40;99906.91;;;7.74;65.71
32875;BME280;40468;42.128;24.750;2024-03-22T02:22:12;99918.16;;;7.75;65.62
32875;BME280;40468;42.128;24.750;2024-03-22T02:23:44;99912.06;;;7.76;65.56
32875;BME280;40468;42.128;24.750;2024-03-22T02:25:15;99919.00;;;7.75;65.57
32875;BME280;40468;42.128;24.750;2024-03-22T02:26:47;99918.94;;;7.77;65.65
32875;BME280;40468;42.128;24.750;2024-03-22T02:28:18;99871.47;;;7.48;65.53
32875;BME280;40468;42.128;24.750;2024-03-22T02:29:49;99919.00;;;7.75;65.57
32875;BME280;40468;42.128;24.750;2024-03-22T02:31:20;99924.09;;;7.79;65.56
32875;BME280;40468;42.128;24.750;2024-03-22T02:32:51;99925.78;;;7.80;65.44
32875;BME280;40468;42.128;24.750;2024-03-22T02:34:22;99918.09;;;7.77;65.62
32875;BME280;40468;42.128;24.750;2024-03-22T02:35:54;99931.03;;;7.78;65.32
32875;BME280;40468;42.128;24.750;2024-03-22T02:37:25;99930.13;;;7.79;65.43
32875;BME280;40468;42.128;24.750;2024-03-22T02:38:57;99929.22;;;7.80;65.42
32875;BME280;40468;42.128;24.750;2024-03-22T02:40:29;99924.13;;;7.77;65.26
32875;BME280;40468;42.128;24.750;2024-03-22T02:42:00;99920.88;;;7.70;65.40
32875;BME280;40468;42.128;24.750;2024-03-22T02:43:30;99935.22;;;7.81;65.38
32875;BME280;40468;42.128;24.750;2024-03-22T02:45:02;99932.81;;;7.76;65.46
32875;BME280;40468;42.128;24.750;2024-03-22T02:46:33;99930.25;;;7.74;65.49
32875;BME280;40468;42.128;24.750;2024-03-22T02:48:05;99927.66;;;7.74;65.47
32875;BME280;40468;42.128;24.750;2024-03-22T02:49:38;99928.47;;;7.77;65.33
32875;BME280;40468;42.128;24.750;2024-03-22T02:51:09;99925.88;;;7.77;65.34
32875;BME280;40468;42.128;24.750;2024-03-22T02:52:40;99932.75;;;7.78;65.18
32875;BME280;40468;42.128;24.750;2024-03-22T02:54:14;99938.72;;;7.80;65.29
32875;BME280;40468;42.128;24.750;2024-03-22T02:55:44;99929.41;;;7.74;65.26
32875;BME280;40468;42.128;24.750;2024-03-22T02:57:15;99942.34;;;7.75;65.19
32875;BME280;40468;42.128;24.750;2024-03-22T02:58:49;99936.25;;;7.77;65.31
32875;BME280;40468;42.128;24.750;2024-03-22T03:00:20;99939.78;;;7.74;65.19
32875;BME280;40468;42.128;24.750;2024-03-22T03:01:50;99944.00;;;7.77;65.26
32875;BME280;40468;42.128;24.750;2024-03-22T03:03:22;99943.09;;;7.78;65.07
32875;BME280;40468;42.128;24.750;2024-03-22T03:04:53;99943.00;;;7.81;65.04
32875;BME280;40468;42.128;24.750;2024-03-22T03:06:24;99951.66;;;7.81;65.05
32875;BME280;40468;42.128;24.750;2024-03-22T03:07:56;99945.59;;;7.81;65.04
32875;BME280;40468;42.128;24.750;2024-03-22T03:09:28;99947.31;;;7.82;64.94
32875;BME280;40468;42.128;24.750;2024-03-22T03:10:59;99944.81;;;7.79;65.15
32875;BME280;40468;42.128;24.750;2024-03-22T03:12:31;99937.34;;;7.69;65.03
32875;BME280;40468;42.128;24.750;2024-03-22T03:14:01;99948.28;;;7.78;65.01
32875;BME280;40468;42.128;24.750;2024-03-22T03:15:32;99956.03;;;7.79;65.05
32875;BME280;40468;42.128;24.750;2024-03-22T03:17:04;99950.84;;;7.79;65.08
32875;BME280;40468;42.128;24.750;2024-03-22T03:18:35;99952.53;;;7.80;65.13
32875;BME280;40468;42.128;24.750;2024-03-22T03:20:06;99957.72;;;7.80;65.11
32875;BME280;40468;42.128;24.750;2024-03-22T03:21:40;99957.78;;;7.79;65.02
32875;BME280;40468;42.128;24.750;2024-03-22T03:23:11;99957.81;;;7.77;65.08
32875;BME280;40468;42.128;24.750;2024-03-22T03:24:44;99960.38;;;7.79;65.13
32875;BME280;40468;42.128;24.750;2024-03-22T03:26:15;99959.56;;;7.77;64.96
32875;BME280;40468;42.128;24.750;2024-03-22T03:27:47;99964.91;;;7.72;64.96
32875;BME280;40468;42.128;24.750;2024-03-22T03:29:19;99969.13;;;7.74;65.17
32875;BME280;40468;42.128;24.750;2024-03-22T03:30:50;99966.59;;;7.73;65.12
32875;BME280;40468;42.128;24.750;2024-03-22T03:32:21;99965.75;;;7.72;65.14
32875;BME280;40468;42.128;24.750;2024-03-22T03:33:52;99969.22;;;7.71;65.17
32875;BME280;40468;42.128;24.750;2024-03-22T03:35:24;99966.69;;;7.70;65.15
32875;BME280;40468;42.128;24.750;2024-03-22T03:36:56;99965.03;;;7.67;65.13
32875;BME280;40468;42.128;24.750;2024-03-22T03:38:31;99965.16;;;7.63;65.19
32875;BME280;40468;42.128;24.750;2024-03-22T03:40:06;99966.16;;;7.59;65.37
32875;BME280;40468;42.128;24.750;2024-03-22T03:41:36;99978.28;;;7.58;65.34
32875;BME280;40468;42.128;24.750;2024-03-22T03:43:07;99979.22;;;7.56;65.38
32875;BME280;40468;42.128;24.750;2024-03-22T03:44:39;99981.06;;;7.52;65.43
32875;BME280;40468;42.128;24.750;2024-03-22T03:46:11;99980.31;;;7.48;65.45
32875;BME280;40468;42.128;24.750;2024-03-22T03:47:42;99984.59;;;7.49;65.45
32875;BME280;40468;42.128;24.750;2024-03-22T03:49:14;99985.44;;;7.50;65.49
32875;BME280;40468;42.128;24.750;2024-03-22T03:50:51;99981.16;;;7.49;65.40
32875;BME280;40468;42.128;24.750;2024-03-22T03:52:22;99989.81;;;7.48;65.48
32875;BME280;40468;42.128;24.750;2024-03-22T03:53:54;99965.91;;;7.38;65.47
32875;BME280;40468;42.128;24.750;2024-03-22T03:55:26;99988.97;;;7.47;65.55
32875;BME280;40468;42.128;24.750;2024-03-22T03:56:57;99961.75;;;7.33;65.46
32875;BME280;40468;42.128;24.750;2024-03-22T03:58:29;99985.63;;;7.42;65.53
32875;BME280;40468;42.128;24.750;2024-03-22T03:59:59;99985.72;;;7.39;65.53
32875;BME280;40468;42.128;24.750;2024-03-22T04:01:30;99995.34;;;7.36;65.62
32875;BME280;40468;42.128;24.750;2024-03-22T04:03:03;99998.97;;;7.30;65.72
32875;BME280;40468;42.128;24.750;2024-03-22T04:04:33;99998.25;;;7.25;65.73
32875;BME280;40468;42.128;24.750;2024-03-22T04:06:04;100003.56;;;7.20;65.73
32875;BME280;40468;42.128;24.750;2024-03-22T04:07:36;99994.13;;;7.18;65.81
32875;BME280;40468;42.128;24.750;2024-03-22T04:09:07;99981.50;;;7.07;65.93
32875;BME280;40468;42.128;24.750;2024-03-22T04:10:40;99997.78;;;7.11;66.11
32875;BME280;40468;42.128;24.750;2024-03-22T04:12:12;99991.16;;;7.00;66.16
32875;BME280;40468;42.128;24.750;2024-03-22T04:13:43;100000.56;;;7.04;66.14
32875;BME280;40468;42.128;24.750;2024-03-22T04:15:14;99997.25;;;6.98;66.17
32875;BME280;40468;42.128;24.750;2024-03-22T04:16:46;100009.34;;;6.99;66.25
32875;BME280;40468;42.128;24.750;2024-03-22T04:18:17;100011.94;;;6.97;66.18
32875;BME280;40468;42.128;24.750;2024-03-22T04:19:49;100011.94;;;6.97;66.23
32875;BME280;40468;42.128;24.750;2024-03-22T04:21:22;100009.50;;;6.93;66.29
32875;BME280;40468;42.128;24.750;2024-03-22T04:22:53;100021.53;;;6.95;66.46
32875;BME280;40468;42.128;24.750;2024-03-22T04:24:24;100013.00;;;6.90;66.51
32875;BME280;40468;42.128;24.750;2024-03-22T04:25:58;100007.66;;;6.96;66.42
32875;BME280;40468;42.128;24.750;2024-03-22T04:27:29;100019.22;;;6.83;66.58
32875;BME280;40468;42.128;24.750;2024-03-22T04:28:59;100022.56;;;6.88;66.65
32875;BME280;40468;42.128;24.750;2024-03-22T04:30:31;100008.66;;;6.92;66.44
32875;BME280;40468;42.128;24.750;2024-03-22T04:32:02;100022.38;;;6.96;66.34
32875;BME280;40468;42.128;24.750;2024-03-22T04:33:35;100018.94;;;6.95;66.23
32875;BME280;40468;42.128;24.750;2024-03-22T04:35:07;100006.84;;;6.94;66.27
32875;BME280;40468;42.128;24.750;2024-03-22T04:36:38;100011.94;;;6.97;66.45
32875;BME280;40468;42.128;24.750;2024-03-22T04:38:09;100021.44;;;6.98;66.53
32875;BME280;40468;42.128;24.750;2024-03-22T04:39:41;100013.69;;;6.97;66.41
32875;BME280;40468;42.128;24.750;2024-03-22T04:41:13;100014.53;;;6.97;66.28
32875;BME280;40468;42.128;24.750;2024-03-22T04:42:45;100010.28;;;6.95;66.43
32875;BME280;40468;42.128;24.750;2024-03-22T04:44:16;100013.75;;;6.95;66.41
32875;BME280;40468;42.128;24.750;2024-03-22T04:45:48;100014.59;;;6.96;66.44
32875;BME280;40468;42.128;24.750;2024-03-22T04:47:20;100014.59;;;6.96;66.38
32875;BME280;40468;42.128;24.750;2024-03-22T04:48:51;100023.22;;;6.96;66.32
32875;BME280;40468;42.128;24.750;2024-03-22T04:50:23;100020.63;;;6.96;66.37
32875;BME280;40468;42.128;24.750;2024-03-22T04:51:55;100012.13;;;6.91;66.29
32875;BME280;40468;42.128;24.750;2024-03-22T04:53:26;100017.28;;;6.91;66.39
32875;BME280;40468;42.128;24.750;2024-03-22T04:54:57;100019.84;;;6.93;66.41
32875;BME280;40468;42.128;24.750;2024-03-22T04:56:30;100020.69;;;6.93;66.25
32875;BME280;40468;42.128;24.750;2024-03-22T04:58:02;100019.03;;;6.91;66.36
32875;BME280;40468;42.128;24.750;2024-03-22T04:59:32;100018.13;;;6.92;66.29
32875;BME280;40468;42.128;24.750;2024-03-22T05:01:03;100031.09;;;6.92;66.34
32875;BME280;40468;42.128;24.750;2024-03-22T05:02:35;99985.19;;;6.66;66.31
32875;BME280;40468;42.128;24.750;2024-03-22T05:04:06;100026.81;;;6.91;66.16
32875;BME280;40468;42.128;24.750;2024-03-22T05:05:37;100031.13;;;6.90;65.82
32875;BME280;40468;42.128;24.750;2024-03-22T05:07:09;100029.47;;;6.88;66.06
32875;BME280;40468;42.128;24.750;2024-03-22T05:08:40;100026.00;;;6.89;65.98
32875;BME280;40468;42.128;24.750;2024-03-22T05:10:12;100029.50;;;6.86;65.83
32875;BME280;40468;42.128;24.750;2024-03-22T05:11:45;100032.09;;;6.86;65.80
32875;BME280;40468;42.128;24.750;2024-03-22T05:13:20;100025.38;;;6.79;65.94
32875;BME280;40468;42.128;24.750;2024-03-22T05:14:52;100031.41;;;6.79;66.17
32875;BME280;40468;42.128;24.750;2024-03-22T05:16:23;100046.09;;;6.79;65.82
32875;BME280;40468;42.128;24.750;2024-03-22T05:17:56;100037.50;;;6.77;65.98
32875;BME280;40468;42.128;24.750;2024-03-22T05:19:28;100041.00;;;6.76;66.10
32875;BME280;40468;42.128;24.750;2024-03-22T05:20:59;100051.31;;;6.77;65.95
32875;BME280;40468;42.128;24.750;2024-03-22T05:22:30;100052.13;;;6.79;65.79
32875;BME280;40468;42.128;24.750;2024-03-22T05:24:02;100053.84;;;6.80;65.85
32875;BME280;40468;42.128;24.750;2024-03-22T05:25:33;100056.38;;;6.82;65.74
32875;BME280;40468;42.128;24.750;2024-03-22T05:27:05;100062.31;;;6.86;65.80
32875;BME280;40468;42.128;24.750;2024-03-22T05:28:37;100007.94;;;6.53;65.89
32875;BME280;40468;42.128;24.750;2024-03-22T05:30:08;100055.38;;;6.86;65.80
32875;BME280;40468;42.128;24.750;2024-03-22T05:31:46;100066.53;;;6.90;65.76
32875;BME280;40468;42.128;24.750;2024-03-22T05:33:19;100065.63;;;6.91;65.71
32875;BME280;40468;42.128;24.750;2024-03-22T05:34:49;100065.56;;;6.94;65.69
32875;BME280;40468;42.128;24.750;2024-03-22T05:36:20;100071.50;;;6.97;65.71
32875;BME280;40468;42.128;24.750;2024-03-22T05:37:52;100070.56;;;7.00;65.74
32875;BME280;40468;42.128;24.750;2024-03-22T05:39:23;100082.56;;;7.04;65.67
32875;BME280;40468;42.128;24.750;2024-03-22T05:40:54;100068.84;;;7.00;65.61
32875;BME280;40468;42.128;24.750;2024-03-22T05:42:27;100077.34;;;7.05;65.66
32875;BME280;40468;42.128;24.750;2024-03-22T05:43:59;100075.56;;;7.07;65.65
32875;BME280;40468;42.128;24.750;2024-03-22T05:45:30;100073.75;;;7.11;65.63
32875;BME280;40468;42.128;24.750;2024-03-22T05:47:02;100076.25;;;7.14;65.57
32875;BME280;40468;42.128;24.750;2024-03-22T05:48:32;100075.31;;;7.17;65.43
32875;BME280;40468;42.128;24.750;2024-03-22T05:50:04;100043.03;;;6.97;65.30
32875;BME280;40468;42.128;24.750;2024-03-22T05:51:36;100087.53;;;7.12;65.32
32875;BME280;40468;42.128;24.750;2024-03-22T05:53:08;100093.38;;;7.18;65.52
32875;BME280;40468;42.128;24.750;2024-03-22T05:54:40;100094.94;;;7.25;65.22
32875;BME280;40468;42.128;24.750;2024-03-22T05:56:10;100089.53;;;7.33;65.17
32875;BME280;40468;42.128;24.750;2024-03-22T05:57:43;100091.72;;;7.48;65.10
32875;BME280;40468;42.128;24.750;2024-03-22T05:59:13;100100.59;;;7.71;64.64
32875;BME280;40468;42.128;24.750;2024-03-22T06:00:45;100098.19;;;7.94;63.84
32875;BME280;40468;42.128;24.750;2024-03-22T06:02:16;100087.31;;;8.11;63.37
32875;BME280;40468;42.128;24.750;2024-03-22T06:03:48;100090.38;;;8.24;63.12
32875;BME280;40468;42.128;24.750;2024-03-22T06:05:19;100088.31;;;8.34;62.83
32875;BME280;40468;42.128;24.750;2024-03-22T06:06:50;100075.50;;;8.29;62.65
32875;BME280;40468;42.128;24.750;2024-03-22T06:08:21;100090.72;;;8.41;62.42
32875;BME280;40468;42.128;24.750;2024-03-22T06:09:52;100088.03;;;8.45;62.42
32875;BME280;40468;42.128;24.750;2024-03-22T06:11:24;100085.31;;;8.49;62.17
32875;BME280;40468;42.128;24.750;2024-03-22T06:12:56;100086.84;;;8.55;62.05
32875;BME280;40468;42.128;24.750;2024-03-22T06:14:27;100079.81;;;8.58;61.78
32875;BME280;40468;42.128;24.750;2024-03-22T06:15:59;100081.38;;;8.62;61.82
32875;BME280;40468;42.128;24.750;2024-03-22T06:17:30;100083.78;;;8.69;61.64
32875;BME280;40468;42.128;24.750;2024-03-22T06:19:01;100078.38;;;8.75;61.29
32875;BME280;40468;42.128;24.750;2024-03-22T06:20:33;100087.63;;;8.83;61.18
32875;BME280;40468;42.128;24.750;2024-03-22T06:22:04;100082.22;;;8.89;61.00
32875;BME280;40468;42.128;24.750;2024-03-22T06:23:36;100084.56;;;8.97;60.84
32875;BME280;40468;42.128;24.750;2024-03-22T06:25:07;100081.69;;;9.05;60.57
32875;BME280;40468;42.128;24.750;2024-03-22T06:26:38;100079.78;;;9.10;60.22
32875;BME280;40468;42.128;24.750;2024-03-22T06:28:12;100077.81;;;9.17;60.08
32875;BME280;40468;42.128;24.750;2024-03-22T06:29:43;100069.88;;;9.21;59.82
32875;BME280;40468;42.128;24.750;2024-03-22T06:31:14;100081.69;;;9.30;59.65
32875;BME280;40468;42.128;24.750;2024-03-22T06:32:45;100075.56;;;9.32;59.24
32875;BME280;40468;42.128;24.750;2024-03-22T06:34:17;100081.34;;;9.41;58.91
32875;BME280;40468;42.128;24.750;2024-03-22T06:35:48;100076.78;;;9.46;58.92
32875;BME280;40468;42.128;24.750;2024-03-22T06:37:19;100083.72;;;9.47;58.40
32875;BME280;40468;42.128;24.750;2024-03-22T06:38:51;100081.94;;;9.47;58.34
32875;BME280;40468;42.128;24.750;2024-03-22T06:40:22;100085.41;;;9.48;58.24
32875;BME280;40468;42.128;24.750;2024-03-22T06:41:52;100071.88;;;9.38;58.29
32875;BME280;40468;42.128;24.750;2024-03-22T06:43:26;100091.44;;;9.48;57.81
32875;BME280;40468;42.128;24.750;2024-03-22T06:44:56;100082.69;;;9.51;57.83
32875;BME280;40468;42.128;24.750;2024-03-22T06:46:28;100078.22;;;9.54;57.71
32875;BME280;40468;42.128;24.750;2024-03-22T06:47:59;100083.72;;;9.70;57.55
32875;BME280;40468;42.128;24.750;2024-03-22T06:49:31;100079.28;;;9.96;57.39
32875;BME280;40468;42.128;24.750;2024-03-22T06:51:02;100081.81;;;10.65;56.04
32875;BME280;40468;42.128;24.750;2024-03-22T06:52:32;100083.84;;;11.59;53.50
32875;BME280;40468;42.128;24.750;2024-03-22T06:54:04;100084.78;;;12.51;50.98
32875;BME280;40468;42.128;24.750;2024-03-22T06:55:35;100075.34;;;13.35;49.24
32875;BME280;40468;42.128;24.750;2024-03-22T06:57:06;100033.84;;;13.78;47.17
32875;BME280;40468;42.128;24.750;2024-03-22T06:58:38;100079.84;;;14.62;45.84
32875;BME280;40468;42.128;24.750;2024-03-22T07:00:10;100074.16;;;15.28;44.97
32875;BME280;40468;42.128;24.750;2024-03-22T07:01:41;100072.00;;;15.49;43.96
32875;BME280;40468;42.128;24.750;2024-03-22T07:03:12;100072.63;;;15.68;43.43
32875;BME280;40468;42.128;24.750;2024-03-22T07:04:44;100066.22;;;15.87;43.16
32875;BME280;40468;42.128;24.750;2024-03-22T07:06:15;100073.56;;;16.09;42.94
32875;BME280;40468;42.128;24.750;2024-03-22T07:07:46;100073.03;;;16.31;42.71
32875;BME280;40468;42.128;24.750;2024-03-22T07:09:20;100067.34;;;16.51;42.20
32875;BME280;40468;42.128;24.750;2024-03-22T07:10:51;100071.78;;;16.64;41.97
32875;BME280;40468;42.128;24.750;2024-03-22T07:12:23;100071.75;;;16.78;41.60
32875;BME280;40468;42.128;24.750;2024-03-22T07:13:56;100068.72;;;16.84;41.50
32875;BME280;40468;42.128;24.750;2024-03-22T07:15:27;100072.59;;;16.91;41.51
32875;BME280;40468;42.128;24.750;2024-03-22T07:16:58;100072.94;;;16.99;41.36
32875;BME280;40468;42.128;24.750;2024-03-22T07:18:30;100068.84;;;17.08;41.30
32875;BME280;40468;42.128;24.750;2024-03-22T07:20:01;100070.97;;;17.16;41.07
32875;BME280;40468;42.128;24.750;2024-03-22T07:21:32;100075.59;;;17.25;41.05
32875;BME280;40468;42.128;24.750;2024-03-22T07:23:04;100073.56;;;17.41;40.91
32875;BME280;40468;42.128;24.750;2024-03-22T07:24:35;100066.94;;;17.48;40.47
32875;BME280;40468;42.128;24.750;2024-03-22T07:26:05;100055.97;;;17.55;40.52
32875;BME280;40468;42.128;24.750;2024-03-22T07:27:38;100022.41;;;17.45;40.20
32875;BME280;40468;42.128;24.750;2024-03-22T07:29:10;100065.09;;;17.74;39.81
32875;BME280;40468;42.128;24.750;2024-03-22T07:30:41;100064.03;;;17.77;39.67
32875;BME280;40468;42.128;24.750;2024-03-22T07:32:13;100068.06;;;17.83;39.40
32875;BME280;40468;42.128;24.750;2024-03-22T07:33:44;100070.16;;;17.90;39.36
32875;BME280;40468;42.128;24.750;2024-03-22T07:35:16;100066.97;;;17.98;38.98
32875;BME280;40468;42.128;24.750;2024-03-22T07:36:47;100065.91;;;18.01;38.76
32875;BME280;40468;42.128;24.750;2024-03-22T07:38:18;100064.28;;;17.87;38.61
32875;BME280;40468;42.128;24.750;2024-03-22T07:39:50;100072.38;;;17.71;38.74
32875;BME280;40468;42.128;24.750;2024-03-22T07:41:21;100075.22;;;17.68;38.77
32875;BME280;40468;42.128;24.750;2024-03-22T07:42:52;100071.03;;;17.78;38.78
32875;BME280;40468;42.128;24.750;2024-03-22T07:44:25;100067.63;;;17.89;38.33
32875;BME280;40468;42.128;24.750;2024-03-22T07:45:59;100080.13;;;18.35;37.69
32875;BME280;40468;42.128;24.750;2024-03-22T07:47:31;100071.16;;;18.97;36.32
32875;BME280;40468;42.128;24.750;2024-03-22T07:49:02;100072.81;;;19.55;35.45
32875;BME280;40468;42.128;24.750;2024-03-22T07:50:34;100072.91;;;19.99;34.76
32875;BME280;40468;42.128;24.750;2024-03-22T07:52:06;100069.47;;;20.31;34.10
32875;BME280;40468;42.128;24.750;2024-03-22T07:53:37;100030.91;;;20.17;33.41
32875;BME280;40468;42.128;24.750;2024-03-22T07:55:09;100064.00;;;20.43;33.39
32875;BME280;40468;42.128;24.750;2024-03-22T07:56:39;100073.63;;;20.56;33.36
32875;BME280;40468;42.128;24.750;2024-03-22T07:58:11;100073.13;;;20.62;33.29
32875;BME280;40468;42.128;24.750;2024-03-22T07:59:43;100067.38;;;20.57;33.20